createdAt,value
2018-09-28T00:00:27.022Z,4.10
2018-09-28T00:01:27.020Z,5.20
2018-09-28T00:02:27.024Z,5.00
2018-09-28T00:03:26.980Z,4.00
2018-09-28T00:04:26.977Z,3.20
2018-09-28T00:05:26.972Z,3.90
2018-09-28T00:06:26.966Z,4.40
2018-09-28T00:07:26.951Z,3.10
2018-09-28T00:08:26.933Z,4.10
2018-09-28T00:09:26.917Z,4.70
2018-09-28T00:10:26.910Z,5.30
2018-09-28T00:11:26.902Z,4.20
2018-09-28T00:12:26.919Z,5.20
2018-09-28T00:13:26.881Z,5.50
2018-09-28T00:14:26.872Z,3.40
2018-09-28T00:15:26.848Z,5.90
2018-09-28T00:16:26.842Z,5.60
2018-09-28T00:17:26.845Z,3.70
2018-09-28T00:18:26.819Z,6.40
2018-09-28T00:19:26.814Z,4.70
2018-09-28T00:20:26.838Z,5.30
2018-09-28T00:21:26.789Z,4.40
2018-09-28T00:22:26.828Z,3.30
2018-09-28T00:23:26.759Z,6.20
2018-09-28T00:24:26.755Z,4.00
2018-09-28T00:25:26.770Z,3.40
2018-09-28T00:26:26.735Z,4.90
2018-09-28T00:27:26.726Z,4.40
2018-09-28T00:28:26.709Z,4.80
2018-09-28T00:29:26.698Z,4.20
2018-09-28T00:30:26.692Z,6.80
2018-09-28T00:31:26.681Z,6.50
2018-09-28T00:32:26.679Z,4.50
2018-09-28T00:33:26.654Z,6.10
2018-09-28T00:34:26.657Z,4.30
2018-09-28T00:35:26.652Z,3.70
2018-09-28T00:36:26.619Z,5.40
2018-09-28T00:37:26.624Z,4.00
2018-09-28T00:38:26.594Z,5.20
2018-09-28T00:39:26.592Z,4.00
2018-09-28T00:40:26.583Z,3.10
2018-09-28T00:41:26.566Z,4.50
2018-09-28T00:42:26.549Z,4.80
2018-09-28T00:43:26.560Z,5.40
2018-09-28T00:44:26.536Z,5.00
2018-09-28T00:45:26.524Z,4.80
2018-09-28T00:46:26.515Z,4.50
2018-09-28T00:47:26.505Z,4.90
2018-09-28T00:48:26.520Z,4.10
2018-09-28T00:49:26.479Z,5.30
2018-09-28T00:50:26.463Z,4.50
2018-09-28T00:51:26.460Z,4.40
2018-09-28T00:52:26.447Z,4.30
2018-09-28T00:53:26.440Z,5.70
2018-09-28T00:54:26.438Z,4.50
2018-09-28T00:55:26.410Z,5.60
2018-09-28T00:56:26.405Z,4.80
2018-09-28T00:57:26.391Z,4.70
2018-09-28T00:58:26.402Z,4.80
2018-09-28T00:59:26.382Z,4.70
2018-09-28T01:00:26.358Z,5.10
2018-09-28T01:01:26.345Z,4.20
2018-09-28T01:02:26.332Z,4.80
2018-09-28T01:03:26.334Z,5.30
2018-09-28T01:04:26.326Z,5.50
2018-09-28T01:05:26.309Z,4.50
2018-09-28T01:06:26.296Z,6.60
2018-09-28T01:07:26.277Z,5.30
2018-09-28T01:08:26.272Z,5.20
2018-09-28T01:09:26.274Z,4.20
2018-09-28T01:10:26.247Z,6.20
2018-09-28T01:11:26.262Z,4.30
2018-09-28T01:12:26.233Z,4.40
2018-09-28T01:13:26.214Z,5.60
2018-09-28T01:14:26.206Z,7.20
2018-09-28T01:15:26.213Z,5.00
2018-09-28T01:16:26.187Z,5.40
2018-09-28T01:17:26.173Z,4.10
2018-09-28T01:18:26.166Z,5.60
2018-09-28T01:19:26.151Z,5.90
2018-09-28T01:20:26.159Z,5.00
2018-09-28T01:21:26.167Z,5.30
2018-09-28T01:22:26.113Z,4.20
2018-09-28T01:23:26.112Z,5.70
2018-09-28T01:24:26.100Z,4.90
2018-09-28T01:25:26.104Z,6.00
2018-09-28T01:26:26.079Z,6.40
2018-09-28T01:27:26.072Z,5.70
2018-09-28T01:28:26.051Z,4.40
2018-09-28T01:29:26.044Z,9.80
2018-09-28T01:30:26.047Z,4.70
2018-09-28T01:31:26.025Z,7.50
2018-09-28T01:32:26.007Z,4.90
2018-09-28T01:33:26.001Z,5.90
2018-09-28T01:34:26.007Z,5.70
2018-09-28T01:35:25.995Z,7.50
2018-09-28T01:36:25.967Z,5.80
2018-09-28T01:37:25.964Z,7.60
2018-09-28T01:38:25.947Z,4.60
2018-09-28T01:39:25.941Z,5.40
2018-09-28T01:40:25.940Z,6.40
2018-09-28T01:41:25.909Z,6.90
2018-09-28T01:42:25.896Z,4.90
2018-09-28T01:43:25.892Z,6.10
2018-09-28T01:44:25.904Z,5.80
2018-09-28T01:45:25.882Z,8.20
2018-09-28T01:46:25.852Z,6.90
2018-09-28T01:47:25.850Z,5.90
2018-09-28T01:48:25.834Z,6.80
2018-09-28T01:49:25.824Z,5.00
2018-09-28T01:50:25.815Z,5.70
2018-09-28T01:51:25.811Z,7.20
2018-09-28T01:52:25.792Z,5.60
2018-09-28T01:53:25.779Z,8.80
2018-09-28T01:54:25.775Z,5.50
2018-09-28T01:55:25.760Z,6.10
2018-09-28T01:56:25.747Z,5.30
2018-09-28T01:57:25.762Z,5.10
2018-09-28T01:58:25.730Z,6.00
2018-09-28T01:59:25.720Z,4.90
2018-09-28T02:00:25.704Z,6.60
2018-09-28T02:01:25.692Z,5.50
2018-09-28T02:02:25.686Z,6.30
2018-09-28T02:03:25.666Z,5.60
2018-09-28T02:04:25.675Z,5.20
2018-09-28T02:05:25.659Z,6.00
2018-09-28T02:06:25.633Z,4.90
2018-09-28T02:07:25.650Z,7.40
2018-09-28T02:08:25.616Z,5.30
2018-09-28T02:09:25.607Z,5.80
2018-09-28T02:10:25.613Z,6.50
2018-09-28T02:11:25.581Z,7.40
2018-09-28T02:12:25.621Z,5.80
2018-09-28T02:13:25.558Z,6.40
2018-09-28T02:14:25.575Z,6.70
2018-09-28T02:15:25.548Z,5.90
2018-09-28T02:16:25.526Z,5.60
2018-09-28T02:17:25.531Z,5.80
2018-09-28T02:18:25.498Z,7.10
2018-09-28T02:19:25.514Z,5.60
2018-09-28T02:20:25.492Z,6.40
2018-09-28T02:21:25.480Z,7.00
2018-09-28T02:22:25.465Z,5.80
2018-09-28T02:23:25.460Z,7.70
2018-09-28T02:24:25.455Z,7.10
2018-09-28T02:25:25.431Z,6.40
2018-09-28T02:26:25.411Z,7.30
2018-09-28T02:27:25.408Z,6.30
2018-09-28T02:28:25.397Z,7.30
2018-09-28T02:29:25.385Z,6.40
2018-09-28T02:30:25.407Z,6.60
2018-09-28T02:31:25.357Z,5.80
2018-09-28T02:32:25.348Z,10.90
2018-09-28T02:33:25.343Z,7.00
2018-09-28T02:34:25.351Z,5.80
2018-09-28T02:35:25.311Z,5.90
2018-09-28T02:36:25.308Z,7.90
2018-09-28T02:37:25.300Z,6.70
2018-09-28T02:38:25.279Z,6.00
2018-09-28T02:39:25.278Z,5.70
2018-09-28T02:40:25.274Z,7.90
2018-09-28T02:41:25.251Z,7.50
2018-09-28T02:42:25.249Z,7.30
2018-09-28T02:43:25.236Z,6.30
2018-09-28T02:44:25.216Z,8.70
2018-09-28T02:45:25.223Z,7.50
2018-09-28T02:46:25.197Z,7.30
2018-09-28T02:47:25.188Z,6.60
2018-09-28T02:48:25.180Z,6.40
2018-09-28T02:49:25.161Z,5.60
2018-09-28T02:50:25.149Z,7.10
2018-09-28T02:51:25.160Z,6.10
2018-09-28T02:52:25.129Z,9.00
2018-09-28T02:53:25.151Z,8.00
2018-09-28T02:54:25.113Z,6.50
2018-09-28T02:55:25.093Z,7.80
2018-09-28T02:56:25.116Z,8.20
2018-09-28T02:57:25.080Z,5.50
2018-09-28T02:58:25.101Z,7.10
2018-09-28T02:59:25.049Z,7.10
2018-09-28T03:00:25.061Z,6.00
2018-09-28T03:01:25.045Z,5.80
2018-09-28T03:02:25.018Z,6.50
2018-09-28T03:03:25.029Z,6.70
2018-09-28T03:04:25.000Z,6.90
2018-09-28T03:05:24.996Z,7.70
2018-09-28T03:06:25.072Z,6.20
2018-09-28T03:07:24.975Z,6.90
2018-09-28T03:08:24.975Z,6.60
2018-09-28T03:09:24.947Z,8.30
2018-09-28T03:10:24.939Z,8.40
2018-09-28T03:11:24.933Z,7.80
2018-09-28T03:12:24.911Z,7.70
2018-09-28T03:13:24.899Z,5.80
2018-09-28T03:14:24.885Z,6.60
2018-09-28T03:15:24.885Z,8.90
2018-09-28T03:16:24.895Z,5.70
2018-09-28T03:17:24.872Z,6.50
2018-09-28T03:18:24.867Z,6.30
2018-09-28T03:19:24.841Z,7.70
2018-09-28T03:20:24.836Z,6.00
2018-09-28T03:21:24.821Z,8.60
2018-09-28T03:22:24.815Z,6.20
2018-09-28T03:23:24.801Z,7.30
2018-09-28T03:24:24.779Z,6.70
2018-09-28T03:25:24.775Z,8.30
2018-09-28T03:26:24.762Z,7.70
2018-09-28T03:27:24.767Z,7.00
2018-09-28T03:28:24.742Z,7.50
2018-09-28T03:29:24.756Z,8.70
2018-09-28T03:30:24.721Z,6.40
2018-09-28T03:31:24.711Z,6.50
2018-09-28T03:32:24.712Z,11.20
2018-09-28T03:33:24.683Z,8.90
2018-09-28T03:34:24.677Z,10.00
2018-09-28T03:35:24.668Z,8.00
2018-09-28T03:36:24.653Z,7.00
2018-09-28T03:37:24.659Z,7.70
2018-09-28T03:38:24.628Z,6.70
2018-09-28T03:39:24.625Z,6.40
2018-09-28T03:40:24.664Z,6.70
2018-09-28T03:41:24.600Z,6.30
2018-09-28T03:42:24.594Z,7.10
2018-09-28T03:43:24.584Z,8.90
2018-09-28T03:44:24.565Z,6.50
2018-09-28T03:45:24.564Z,10.50
2018-09-28T03:46:24.539Z,10.10
2018-09-28T03:47:24.535Z,6.90
2018-09-28T03:48:24.537Z,7.70
2018-09-28T03:49:24.515Z,9.00
2018-09-28T03:50:24.505Z,7.00
2018-09-28T03:51:24.567Z,7.10
2018-09-28T03:52:24.504Z,8.80
2018-09-28T03:53:24.488Z,6.80
2018-09-28T03:54:24.466Z,7.90
2018-09-28T03:55:24.442Z,8.50
2018-09-28T03:56:24.438Z,7.50
2018-09-28T03:57:24.424Z,7.50
2018-09-28T03:58:24.409Z,8.80
2018-09-28T03:59:24.427Z,6.70
2018-09-28T04:00:24.395Z,9.40
2018-09-28T04:01:24.382Z,10.80
2018-09-28T04:02:24.375Z,8.80
2018-09-28T04:03:24.359Z,6.50
2018-09-28T04:04:24.348Z,7.40
2018-09-28T04:05:24.356Z,7.50
2018-09-28T04:06:24.320Z,8.60
2018-09-28T04:07:24.317Z,7.20
2018-09-28T04:08:24.310Z,8.20
2018-09-28T04:09:24.293Z,7.00
2018-09-28T04:10:24.304Z,10.50
2018-09-28T04:11:24.279Z,8.00
2018-09-28T04:12:24.259Z,11.30
2018-09-28T04:13:24.249Z,8.00
2018-09-28T04:14:24.245Z,9.10
2018-09-28T04:15:24.262Z,9.50
2018-09-28T04:16:24.215Z,6.70
2018-09-28T04:17:24.203Z,7.70
2018-09-28T04:18:24.195Z,9.30
2018-09-28T04:19:24.187Z,8.70
2018-09-28T04:20:24.195Z,8.10
2018-09-28T04:21:24.161Z,10.60
2018-09-28T04:22:24.160Z,9.20
2018-09-28T04:23:24.133Z,7.80
2018-09-28T04:24:24.132Z,9.20
2018-09-28T04:25:24.120Z,9.70
2018-09-28T04:26:24.130Z,8.10
2018-09-28T04:27:24.097Z,8.80
2018-09-28T04:28:24.090Z,8.60
2018-09-28T04:29:24.075Z,9.90
2018-09-28T04:30:24.059Z,6.80
2018-09-28T04:31:24.069Z,7.40
2018-09-28T04:32:24.042Z,9.10
2018-09-28T04:33:24.030Z,9.50
2018-09-28T04:34:24.022Z,7.00
2018-09-28T04:35:24.003Z,8.60
2018-09-28T04:36:24.009Z,7.20
2018-09-28T04:37:23.985Z,8.30
2018-09-28T04:38:23.989Z,7.60
2018-09-28T04:39:23.975Z,8.30
2018-09-28T04:40:23.954Z,11.60
2018-09-28T04:41:23.939Z,9.40
2018-09-28T04:42:23.940Z,10.00
2018-09-28T04:43:23.925Z,6.90
2018-09-28T04:44:23.911Z,8.40
2018-09-28T04:45:23.951Z,9.00
2018-09-28T04:46:23.905Z,7.90
2018-09-28T04:47:23.881Z,8.00
2018-09-28T04:48:23.869Z,6.90
2018-09-28T04:49:23.865Z,8.00
2018-09-28T04:50:23.845Z,11.60
2018-09-28T04:51:23.878Z,8.60
2018-09-28T04:52:23.839Z,9.20
2018-09-28T04:53:23.816Z,8.20
2018-09-28T04:54:23.807Z,7.30
2018-09-28T04:55:23.785Z,7.30
2018-09-28T04:56:23.775Z,8.00
2018-09-28T04:57:23.769Z,8.70
2018-09-28T04:58:23.773Z,7.10
2018-09-28T04:59:23.741Z,9.90
2018-09-28T05:00:23.739Z,8.80
2018-09-28T05:01:23.745Z,7.80
2018-09-28T05:02:23.719Z,8.70
2018-09-28T05:03:23.705Z,7.70
2018-09-28T05:04:23.693Z,8.90
2018-09-28T05:05:23.680Z,8.30
2018-09-28T05:06:23.675Z,9.50
2018-09-28T05:07:23.670Z,7.90
2018-09-28T05:08:23.648Z,7.10
2018-09-28T05:09:23.645Z,7.90
2018-09-28T05:10:23.625Z,9.00
2018-09-28T05:11:23.619Z,8.80
2018-09-28T05:12:23.608Z,7.70
2018-09-28T05:13:23.593Z,8.90
2018-09-28T05:14:23.611Z,11.20
2018-09-28T05:15:23.573Z,8.50
2018-09-28T05:16:23.561Z,9.80
2018-09-28T05:17:23.554Z,7.30
2018-09-28T05:18:23.547Z,6.60
2018-09-28T05:19:23.558Z,8.50
2018-09-28T05:20:23.517Z,7.80
2018-09-28T05:21:23.504Z,7.30
2018-09-28T05:22:23.501Z,8.60
2018-09-28T05:23:23.487Z,8.50
2018-09-28T05:24:23.498Z,9.20
2018-09-28T05:25:23.495Z,9.40
2018-09-28T05:26:23.454Z,10.30
2018-09-28T05:27:23.446Z,7.30
2018-09-28T05:28:23.427Z,10.00
2018-09-28T05:29:23.436Z,8.10
2018-09-28T05:30:23.411Z,8.20
2018-09-28T05:31:23.488Z,8.00
2018-09-28T05:32:23.573Z,8.20
2018-09-28T05:33:23.372Z,8.70
2018-09-28T05:34:23.372Z,8.90
2018-09-28T05:35:23.356Z,8.50
2018-09-28T05:36:23.343Z,10.30
2018-09-28T05:37:23.441Z,8.60
2018-09-28T05:38:23.320Z,7.30
2018-09-28T05:39:23.356Z,8.00
2018-09-28T05:40:23.304Z,8.80
2018-09-28T05:41:23.289Z,8.30
2018-09-28T05:42:23.269Z,7.30
2018-09-28T05:43:23.277Z,8.70
2018-09-28T05:44:23.251Z,9.20
2018-09-28T05:45:23.254Z,10.80
2018-09-28T05:46:23.270Z,7.70
2018-09-28T05:47:23.224Z,8.70
2018-09-28T05:48:23.215Z,9.00
2018-09-28T05:49:23.197Z,7.70
2018-09-28T05:50:23.199Z,8.50
2018-09-28T05:51:23.187Z,7.80
2018-09-28T05:52:23.168Z,7.50
2018-09-28T05:53:23.176Z,7.50
2018-09-28T05:54:23.138Z,8.10
2018-09-28T05:55:23.134Z,7.30
2018-09-28T05:56:23.127Z,8.00
2018-09-28T05:57:23.112Z,8.30
2018-09-28T05:58:23.145Z,8.90
2018-09-28T05:59:23.093Z,9.10
2018-09-28T06:00:23.075Z,8.80
2018-09-28T06:01:23.067Z,8.10
2018-09-28T06:02:23.069Z,10.20
2018-09-28T06:03:23.045Z,9.00
2018-09-28T06:04:23.046Z,8.60
2018-09-28T06:05:23.073Z,7.40
2018-09-28T06:06:23.010Z,8.00
2018-09-28T06:07:23.023Z,10.30
2018-09-28T06:08:22.989Z,7.90
2018-09-28T06:09:22.984Z,9.60
2018-09-28T06:10:22.980Z,9.00
2018-09-28T06:11:22.960Z,7.60
2018-09-28T06:12:22.960Z,8.30
2018-09-28T06:13:22.932Z,9.40
2018-09-28T06:14:22.920Z,10.10
2018-09-28T06:15:22.917Z,11.20
2018-09-28T06:16:22.906Z,10.10
2018-09-28T06:17:22.889Z,9.20
2018-09-28T06:18:22.905Z,8.50
2018-09-28T06:19:22.887Z,7.00
2018-09-28T06:20:22.869Z,8.90
2018-09-28T06:21:22.870Z,9.60
2018-09-28T06:22:22.848Z,8.70
2018-09-28T06:23:22.820Z,7.20
2018-09-28T06:24:22.823Z,8.50
2018-09-28T06:25:22.802Z,8.30
2018-09-28T06:26:22.792Z,11.90
2018-09-28T06:27:22.794Z,8.00
2018-09-28T06:28:22.787Z,7.60
2018-09-28T06:29:22.759Z,7.40
2018-09-28T06:30:22.750Z,9.90
2018-09-28T06:31:22.732Z,7.90
2018-09-28T06:32:22.730Z,7.30
2018-09-28T06:33:22.716Z,9.30
2018-09-28T06:34:22.740Z,11.60
2018-09-28T06:35:22.690Z,6.70
2018-09-28T06:36:22.807Z,6.10
2018-09-28T06:37:22.669Z,8.70
2018-09-28T06:38:22.662Z,7.50
2018-09-28T06:39:22.669Z,11.50
2018-09-28T06:40:22.650Z,8.70
2018-09-28T06:41:22.626Z,7.80
2018-09-28T06:42:22.688Z,5.90
2018-09-28T06:43:22.603Z,7.50
2018-09-28T06:44:22.611Z,7.70
2018-09-28T06:45:22.593Z,8.50
2018-09-28T06:46:22.565Z,7.00
2018-09-28T06:47:22.564Z,10.70
2018-09-28T06:48:22.664Z,8.00
2018-09-28T06:49:22.554Z,8.60
2018-09-28T06:50:22.522Z,8.80
2018-09-28T06:51:22.591Z,8.60
2018-09-28T06:52:22.505Z,8.30
2018-09-28T06:53:22.495Z,6.70
2018-09-28T06:54:22.488Z,6.30
2018-09-28T06:55:22.481Z,6.50
2018-09-28T06:56:22.459Z,5.80
2018-09-28T06:57:22.467Z,7.30
2018-09-28T06:58:22.434Z,7.00
2018-09-28T06:59:22.432Z,6.40
2018-09-28T07:00:22.592Z,6.50
2018-09-28T07:01:22.408Z,7.60
2018-09-28T07:02:22.400Z,5.00
2018-09-28T07:03:22.395Z,6.60
2018-09-28T07:04:22.373Z,8.30
2018-09-28T07:05:22.369Z,9.50
2018-09-28T07:06:22.404Z,6.70
2018-09-28T07:07:22.360Z,7.70
2018-09-28T07:08:22.327Z,5.70
2018-09-28T07:09:22.368Z,6.90
2018-09-28T07:10:22.305Z,7.30
2018-09-28T07:11:22.314Z,7.00
2018-09-28T07:12:22.445Z,7.70
2018-09-28T07:13:22.283Z,8.40
2018-09-28T07:14:22.269Z,8.20
2018-09-28T07:15:22.256Z,8.90
2018-09-28T07:16:22.288Z,7.90
2018-09-28T07:17:22.230Z,6.70
2018-09-28T07:18:22.311Z,7.20
2018-09-28T07:19:22.214Z,7.90
2018-09-28T07:20:22.228Z,9.50
2018-09-28T07:21:22.187Z,9.60
2018-09-28T07:22:22.191Z,7.60
2018-09-28T07:23:22.171Z,7.60
2018-09-28T07:24:22.222Z,9.20
2018-09-28T07:25:22.149Z,7.40
2018-09-28T07:26:22.136Z,7.30
2018-09-28T07:27:22.138Z,8.70
2018-09-28T07:28:22.107Z,8.50
2018-09-28T07:29:22.097Z,8.50
2018-09-28T07:30:22.176Z,9.30
2018-09-28T07:31:22.081Z,9.40
2018-09-28T07:32:22.072Z,8.70
2018-09-28T07:33:22.080Z,9.40
2018-09-28T07:34:22.048Z,7.60
2018-09-28T07:35:22.035Z,8.00
2018-09-28T07:36:22.236Z,9.30
2018-09-28T07:37:22.017Z,10.10
2018-09-28T07:38:22.017Z,9.60
2018-09-28T07:39:21.993Z,10.30
2018-09-28T07:40:21.978Z,11.10
2018-09-28T07:41:21.968Z,9.90
2018-09-28T07:42:22.060Z,9.50
2018-09-28T07:43:21.984Z,10.60
2018-09-28T07:44:21.940Z,9.70
2018-09-28T07:45:21.928Z,9.10
2018-09-28T07:46:21.917Z,8.80
2018-09-28T07:47:21.902Z,10.90
2018-09-28T07:48:21.925Z,10.80
2018-09-28T07:49:21.878Z,8.70
2018-09-28T07:50:21.868Z,9.00
2018-09-28T07:51:21.862Z,8.60
2018-09-28T07:52:21.853Z,13.00
2018-09-28T07:53:21.846Z,9.60
2018-09-28T07:54:21.826Z,8.30
2018-09-28T07:55:21.828Z,8.40
2018-09-28T07:56:21.812Z,10.60
2018-09-28T07:57:21.802Z,11.60
2018-09-28T07:58:21.788Z,9.40
2018-09-28T07:59:21.772Z,9.50
2018-09-28T08:00:21.773Z,11.30
2018-09-28T08:01:21.746Z,10.30
2018-09-28T08:02:21.739Z,9.80
2018-09-28T08:03:21.730Z,9.60
2018-09-28T08:04:21.723Z,9.70
2018-09-28T08:05:21.709Z,13.00
2018-09-28T08:06:21.769Z,10.60
2018-09-28T08:07:21.681Z,10.70
2018-09-28T08:08:21.674Z,9.10
2018-09-28T08:09:21.666Z,12.50
2018-09-28T08:10:21.709Z,12.60
2018-09-28T08:11:21.648Z,14.70
2018-09-28T08:12:21.624Z,12.70
2018-09-28T08:13:21.617Z,11.40
2018-09-28T08:14:21.653Z,9.90
2018-09-28T08:15:21.606Z,10.00
2018-09-28T08:16:21.620Z,9.90
2018-09-28T08:17:21.579Z,14.70
2018-09-28T08:18:21.569Z,12.90
2018-09-28T08:19:21.559Z,13.60
2018-09-28T08:20:21.537Z,12.00
2018-09-28T08:21:21.531Z,14.20
2018-09-28T08:22:21.529Z,19.30
2018-09-28T08:23:21.534Z,15.20
2018-09-28T08:24:21.501Z,14.40
2018-09-28T08:25:21.483Z,15.70
2018-09-28T08:26:21.473Z,14.10
2018-09-28T08:27:21.484Z,15.20
2018-09-28T08:28:21.457Z,17.40
2018-09-28T08:29:21.465Z,14.80
2018-09-28T08:30:21.483Z,14.90
2018-09-28T08:31:21.418Z,16.80
2018-09-28T08:32:22.040Z,16.10
2018-09-28T08:33:21.401Z,17.00
2018-09-28T08:34:21.385Z,16.60
2018-09-28T08:35:21.390Z,20.90
2018-09-28T08:36:21.380Z,14.90
2018-09-28T08:37:21.362Z,21.30
2018-09-28T08:38:21.356Z,19.20
2018-09-28T08:39:21.338Z,19.50
2018-09-28T08:40:21.316Z,19.10
2018-09-28T08:41:21.313Z,20.70
2018-09-28T08:42:21.315Z,21.20
2018-09-28T08:43:21.301Z,22.30
2018-09-28T08:44:21.275Z,19.70
2018-09-28T08:45:21.263Z,18.70
2018-09-28T08:46:21.253Z,18.70
2018-09-28T08:47:21.245Z,21.80
2018-09-28T08:48:21.255Z,20.30
2018-09-28T08:49:21.268Z,21.50
2018-09-28T08:50:21.215Z,20.60
2018-09-28T08:51:21.201Z,19.20
2018-09-28T08:52:21.205Z,22.40
2018-09-28T08:53:21.174Z,20.50
2018-09-28T08:54:21.179Z,19.70
2018-09-28T08:55:21.158Z,20.20
2018-09-28T08:56:21.149Z,19.20
2018-09-28T08:57:21.137Z,22.00
2018-09-28T08:58:21.121Z,20.70
2018-09-28T08:59:21.141Z,21.00
2018-09-28T09:00:21.113Z,21.60
2018-09-28T09:01:21.097Z,21.10
2018-09-28T09:02:21.141Z,22.40
2018-09-28T09:03:21.082Z,20.50
2018-09-28T09:04:21.055Z,21.90
2018-09-28T09:05:21.068Z,21.80
2018-09-28T09:06:21.034Z,21.90
2018-09-28T09:07:21.036Z,24.90
2018-09-28T09:08:21.017Z,24.10
2018-09-28T09:09:21.007Z,22.80
2018-09-28T09:10:20.994Z,24.90
2018-09-28T09:11:20.980Z,25.50
2018-09-28T09:12:20.977Z,22.80
2018-09-28T09:13:20.963Z,20.90
2018-09-28T09:14:20.949Z,23.00
2018-09-28T09:15:20.966Z,25.60
2018-09-28T09:16:20.922Z,23.40
2018-09-28T09:17:20.917Z,26.10
2018-09-28T09:18:20.951Z,24.60
2018-09-28T09:19:20.894Z,24.70
2018-09-28T09:20:20.886Z,24.80
2018-09-28T09:21:20.874Z,26.10
2018-09-28T09:22:20.875Z,27.20
2018-09-28T09:23:20.849Z,25.90
2018-09-28T09:24:20.842Z,24.50
2018-09-28T09:25:20.822Z,26.20
2018-09-28T09:26:20.814Z,27.30
2018-09-28T09:27:20.820Z,26.40
2018-09-28T09:28:20.816Z,20.10
2018-09-28T09:29:20.781Z,47.70
2018-09-28T09:30:20.770Z,31.40
2018-09-28T09:31:20.762Z,25.70
2018-09-28T09:32:20.771Z,27.00
2018-09-28T09:33:20.751Z,26.40
2018-09-28T09:34:20.730Z,27.90
2018-09-28T09:35:20.716Z,27.70
2018-09-28T09:36:20.705Z,29.80
2018-09-28T09:37:20.693Z,29.80
2018-09-28T09:38:20.714Z,25.70
2018-09-28T09:39:20.675Z,29.00
2018-09-28T09:40:20.671Z,27.70
2018-09-28T09:41:20.655Z,26.80
2018-09-28T09:42:20.652Z,28.40
2018-09-28T09:43:20.639Z,27.60
2018-09-28T09:44:20.613Z,28.60
2018-09-28T09:45:20.612Z,26.50
2018-09-28T09:46:20.598Z,27.90
2018-09-28T09:47:20.585Z,36.50
2018-09-28T09:48:20.648Z,29.40
2018-09-28T09:49:20.561Z,27.70
2018-09-28T09:50:20.550Z,27.70
2018-09-28T09:51:20.550Z,28.20
2018-09-28T09:52:20.534Z,28.30
2018-09-28T09:53:20.526Z,32.00
2018-09-28T09:54:20.525Z,31.10
2018-09-28T09:55:20.510Z,32.30
2018-09-28T09:56:20.483Z,30.50
2018-09-28T09:57:20.471Z,30.50
2018-09-28T09:58:20.473Z,29.80
2018-09-28T09:59:20.467Z,32.00
2018-09-28T10:00:20.446Z,34.20
2018-09-28T10:01:20.429Z,34.10
2018-09-28T10:02:20.418Z,32.20
2018-09-28T10:03:20.410Z,32.00
2018-09-28T10:04:20.423Z,36.30
2018-09-28T10:05:20.392Z,35.40
2018-09-28T10:06:20.376Z,34.90
2018-09-28T10:07:20.365Z,35.00
2018-09-28T10:08:20.356Z,34.40
2018-09-28T10:09:20.354Z,34.20
2018-09-28T10:10:20.333Z,36.10
2018-09-28T10:11:20.327Z,38.40
2018-09-28T10:12:20.335Z,34.70
2018-09-28T10:13:20.306Z,38.70
2018-09-28T10:14:20.308Z,37.30
2018-09-28T10:15:20.291Z,33.00
2018-09-28T10:16:20.262Z,36.60
2018-09-28T10:17:20.276Z,34.60
2018-09-28T10:18:20.244Z,34.70
2018-09-28T10:19:20.308Z,36.80
2018-09-28T10:20:20.230Z,33.30
2018-09-28T10:21:20.206Z,34.40
2018-09-28T10:22:20.211Z,34.50
2018-09-28T10:23:20.193Z,37.30
2018-09-28T10:24:20.180Z,33.80
2018-09-28T10:25:20.185Z,36.00
2018-09-28T10:26:20.163Z,37.50
2018-09-28T10:27:20.201Z,34.70
2018-09-28T10:28:20.221Z,33.20
2018-09-28T10:29:20.117Z,37.60
2018-09-28T10:30:20.120Z,37.40
2018-09-28T10:31:20.101Z,36.00
2018-09-28T10:32:20.095Z,37.90
2018-09-28T10:33:20.074Z,35.80
2018-09-28T10:34:20.117Z,34.10
2018-09-28T10:35:20.069Z,35.10
2018-09-28T10:36:20.430Z,36.70
2018-09-28T10:37:20.058Z,34.70
2018-09-28T10:38:20.027Z,35.70
2018-09-28T10:39:20.072Z,35.00
2018-09-28T10:40:20.111Z,35.20
2018-09-28T10:41:19.986Z,36.60
2018-09-28T10:42:19.992Z,35.60
2018-09-28T10:43:19.974Z,35.20
2018-09-28T10:44:19.961Z,35.30
2018-09-28T10:45:20.034Z,35.90
2018-09-28T10:46:19.939Z,35.50
2018-09-28T10:47:19.922Z,36.30
2018-09-28T10:48:19.923Z,39.60
2018-09-28T10:49:19.954Z,36.20
2018-09-28T10:50:19.914Z,39.00
2018-09-28T10:51:19.961Z,35.70
2018-09-28T10:52:19.995Z,37.10
2018-09-28T10:53:19.854Z,35.30
2018-09-28T10:54:19.848Z,35.40
2018-09-28T10:55:19.837Z,39.40
2018-09-28T10:56:19.859Z,34.20
2018-09-28T10:57:19.875Z,36.70
2018-09-28T10:58:19.867Z,36.60
2018-09-28T10:59:19.792Z,39.20
2018-09-28T11:00:19.803Z,38.90
2018-09-28T11:01:19.766Z,38.90
2018-09-28T11:02:19.768Z,40.20
2018-09-28T11:03:19.769Z,41.70
2018-09-28T11:04:19.822Z,38.20
2018-09-28T11:05:19.724Z,41.00
2018-09-28T11:06:19.725Z,39.50
2018-09-28T11:07:19.704Z,41.70
2018-09-28T11:08:19.726Z,43.70
2018-09-28T11:09:19.781Z,40.50
2018-09-28T11:10:19.806Z,40.10
2018-09-28T11:11:19.659Z,42.70
2018-09-28T11:12:19.649Z,43.30
2018-09-28T11:13:19.639Z,41.10
2018-09-28T11:14:19.636Z,41.40
2018-09-28T11:15:19.646Z,43.00
2018-09-28T11:16:19.617Z,42.30
2018-09-28T11:17:19.598Z,46.00
2018-09-28T11:18:19.602Z,42.60
2018-09-28T11:19:19.572Z,44.20
2018-09-28T11:20:19.556Z,44.40
2018-09-28T11:21:19.624Z,42.50
2018-09-28T11:22:19.541Z,42.50
2018-09-28T11:23:19.554Z,45.80
2018-09-28T11:24:19.512Z,43.40
2018-09-28T11:25:19.502Z,46.10
2018-09-28T11:26:19.511Z,43.20
2018-09-28T11:27:19.551Z,42.40
2018-09-28T11:28:19.494Z,45.60
2018-09-28T11:29:19.465Z,48.20
2018-09-28T11:30:19.453Z,46.50
2018-09-28T11:31:19.436Z,44.90
2018-09-28T11:32:19.430Z,45.30
2018-09-28T11:33:19.445Z,46.70
2018-09-28T11:34:19.422Z,42.40
2018-09-28T11:35:19.401Z,42.90
2018-09-28T11:36:19.412Z,45.30
2018-09-28T11:37:19.377Z,47.00
2018-09-28T11:38:19.359Z,44.90
2018-09-28T11:39:19.419Z,41.90
2018-09-28T11:40:19.359Z,42.70
2018-09-28T11:41:19.336Z,44.20
2018-09-28T11:42:19.321Z,42.40
2018-09-28T11:43:19.383Z,40.10
2018-09-28T11:44:19.310Z,41.40
2018-09-28T11:45:19.352Z,35.90
2018-09-28T11:46:19.272Z,40.20
2018-09-28T11:47:19.267Z,37.70
2018-09-28T11:48:19.258Z,37.70
2018-09-28T11:49:19.245Z,35.80
2018-09-28T11:50:19.247Z,36.30
2018-09-28T11:51:19.270Z,39.40
2018-09-28T11:52:19.211Z,37.70
2018-09-28T11:53:19.201Z,41.50
2018-09-28T11:54:19.189Z,36.80
2018-09-28T11:55:19.181Z,36.60
2018-09-28T11:56:19.163Z,33.70
2018-09-28T11:57:19.252Z,36.70
2018-09-28T11:58:19.138Z,37.40
2018-09-28T11:59:19.172Z,35.40
2018-09-28T12:00:19.131Z,36.30
2018-09-28T12:01:19.109Z,35.00
2018-09-28T12:02:19.114Z,34.50
2018-09-28T12:03:19.141Z,34.40
2018-09-28T12:04:19.073Z,37.10
2018-09-28T12:05:19.071Z,31.30
2018-09-28T12:06:19.165Z,32.70
2018-09-28T12:07:19.057Z,32.70
2018-09-28T12:08:19.032Z,33.10
2018-09-28T12:09:19.087Z,33.00
2018-09-28T12:10:19.005Z,33.20
2018-09-28T12:11:19.018Z,29.60
2018-09-28T12:12:19.033Z,29.50
2018-09-28T12:13:18.993Z,30.70
2018-09-28T12:14:18.969Z,28.60
2018-09-28T12:15:19.003Z,32.70
2018-09-28T12:16:18.944Z,25.60
2018-09-28T12:17:18.949Z,28.10
2018-09-28T12:18:18.952Z,27.10
2018-09-28T12:19:18.918Z,31.50
2018-09-28T12:20:18.900Z,26.90
2018-09-28T12:21:18.972Z,30.80
2018-09-28T12:22:18.894Z,27.20
2018-09-28T12:23:18.874Z,29.70
2018-09-28T12:24:18.922Z,29.70
2018-09-28T12:25:18.845Z,29.10
2018-09-28T12:26:18.846Z,32.40
2018-09-28T12:27:18.889Z,28.90
2018-09-28T12:28:18.821Z,24.70
2018-09-28T12:29:18.820Z,24.90
2018-09-28T12:30:18.867Z,31.10
2018-09-28T12:31:18.800Z,27.10
2018-09-28T12:32:18.770Z,25.30
2018-09-28T12:33:18.822Z,20.90
2018-09-28T12:34:18.751Z,20.00
2018-09-28T12:35:18.733Z,20.90
2018-09-28T12:36:18.785Z,18.70
2018-09-28T12:37:18.717Z,19.30
2018-09-28T12:38:18.703Z,20.30
2018-09-28T12:39:18.743Z,22.20
2018-09-28T12:40:18.685Z,21.30
2018-09-28T12:41:18.679Z,18.50
2018-09-28T12:42:18.690Z,19.30
2018-09-28T12:43:18.656Z,18.70
2018-09-28T12:44:18.731Z,18.70
2018-09-28T12:45:18.786Z,22.00
2018-09-28T12:46:18.631Z,19.20
2018-09-28T12:47:18.599Z,17.60
2018-09-28T12:48:18.604Z,15.30
2018-09-28T12:49:18.580Z,21.20
2018-09-28T12:50:18.620Z,17.40
2018-09-28T12:51:18.574Z,20.80
2018-09-28T12:52:18.556Z,20.20
2018-09-28T12:53:18.539Z,22.90
2018-09-28T12:54:18.557Z,17.80
2018-09-28T12:55:18.516Z,18.50
2018-09-28T12:56:18.524Z,20.80
2018-09-28T12:57:18.496Z,19.30
2018-09-28T12:58:18.523Z,20.50
2018-09-28T12:59:18.471Z,18.00
2018-09-28T13:00:18.482Z,18.60
2018-09-28T13:01:18.566Z,22.50
2018-09-28T13:02:18.460Z,22.90
2018-09-28T13:03:18.436Z,19.10
2018-09-28T13:04:18.433Z,21.50
2018-09-28T13:05:18.413Z,25.80
2018-09-28T13:06:18.573Z,18.00
2018-09-28T13:07:18.379Z,19.60